Ana Sayfa
METAR-TAF:

METAR-TAF

Havaalanları :

Community_Airport

Owosso, Michigan, Amerika Birleşik Devletleri

Enlem: 42-59-34N, Boylam: 084-08-20W, yükseklik: 224 m

Güncel hava durumu gözlemi

Rapor saat 15:16 UTC de 10 dakika önce yapıldı.
Rüzgar batıdan 8 kt
Sıcaklık 27°C
Nem 74%
Basınç 1014 hPa
Görüş mesafesi: 16.1 km
1400 ft yükseklikte parçalı çok bulutlu

METAR: KRNP 211516Z AUTO 27008KT 10SM BKN014 27/22 A2993 RMK AO2 T02680223

Saat: 11:26 (15:26 UTC)


TAF: eksik

4.000'den fazla havaalanı için hava durumu gözlemleri ve tahminleri (METAR ve TAF raporları).

Kullanılabilir istasyonlar harita üzerinde sarı ve kırmızı noktalarla gösterilir.

İstasyonun adını görmek için fareyi noktanın üzerinde gezdirin.

Sonrasında hava gözlem ve tahminlerini görmek için tıklayın.

Haritayı değiştirmek için: yaklaştırmak için siyah artı işaretli yeşil düğmeye ve uzaklaştırmak için de eksi işaretli düğmeye hızla tıklayın; bitişik haritalar için yeşil okları kullanın.


METAR-TAF: